Time;durP1;ratioP1;P1;durP2;ratioP2;P2;SDS_P1;SDS_P2;PMS_P1;PMS_P2;Temp;Humidity;BMP_temperature;BMP_pressure;BME280_temperature;BME280_humidity;BME280_pressure;Samples;Min_cycle;Max_cycle;Signal;HPM_P1;HPM_P2
2024/03/07 00:02:13;;;;;;;13.82;5.68;;;;;;;5.94;68.75;98996.75;5072412;28;20020;-49
2024/03/07 00:04:39;;;;;;;10.48;6.60;;;;;;;5.87;69.52;98995.78;5072383;28;20024;-49
2024/03/07 00:07:05;;;;;;;14.50;5.07;;;;;;;5.93;69.79;98996.91;5072347;28;20025;-49
2024/03/07 00:09:35;;;;;;;10.27;5.85;;;;;;;6.06;68.96;98991.28;5073571;28;20559;-49
2024/03/07 00:12:05;;;;;;;7.70;5.20;;;;;;;5.93;69.13;98996.91;5055528;28;20021;-49
2024/03/07 00:14:35;;;;;;;11.95;5.15;;;;;;;5.91;68.78;98988.44;5072304;28;20025;-49
2024/03/07 00:17:00;;;;;;;14.70;5.30;;;;;;;5.91;69.37;98991.06;5072072;28;20033;-49
2024/03/07 00:19:26;;;;;;;9.50;5.38;;;;;;;6.05;69.86;98980.00;5073274;28;20391;-49
2024/03/07 00:21:56;;;;;;;10.20;5.22;;;;;;;5.95;68.40;98985.38;5073269;28;20502;-49
2024/03/07 00:24:22;;;;;;;8.82;5.32;;;;;;;5.51;68.92;98985.63;5073547;28;20024;-49
2024/03/07 00:26:52;;;;;;;9.00;5.25;;;;;;;5.61;70.91;98980.28;5073205;28;20047;-48
2024/03/07 00:29:19;;;;;;;10.48;5.63;;;;;;;5.77;69.90;98980.28;5071813;28;20024;-49
2024/03/07 00:31:46;;;;;;;11.07;5.78;;;;;;;5.73;69.73;98975.59;5073052;28;20031;-49
2024/03/07 00:34:18;;;;;;;13.27;5.35;;;;;;;5.84;70.54;98977.88;5073072;28;20052;-49
2024/03/07 00:36:44;;;;;;;14.27;6.63;;;;;;;5.90;69.54;98973.81;5072914;28;20031;-49
2024/03/07 00:39:11;;;;;;;12.63;5.68;;;;;;;5.55;69.03;98973.13;5071631;28;20020;-49
2024/03/07 00:41:41;;;;;;;13.40;6.32;;;;;;;5.60;69.68;98974.28;5071488;28;20391;-49
2024/03/07 00:44:09;;;;;;;10.57;6.30;;;;;;;5.67;70.65;98971.81;5072828;28;20502;-49
2024/03/07 00:46:38;;;;;;;11.38;7.50;;;;;;;5.81;70.13;98978.19;5035201;28;20132;-49
2024/03/07 00:49:05;;;;;;;13.15;7.53;;;;;;;5.96;70.41;98979.22;5051500;28;20017;-49
2024/03/07 00:51:31;;;;;;;15.25;5.90;;;;;;;5.97;69.76;98975.59;5052631;28;20483;-49
2024/03/07 00:53:57;;;;;;;14.27;6.18;;;;;;;6.04;68.75;98972.34;5051373;28;20025;-49
2024/03/07 00:56:23;;;;;;;18.27;9.77;;;;;;;5.90;68.97;98979.03;5051275;28;20495;-49
2024/03/07 00:58:50;;;;;;;33.13;6.95;;;;;;;5.86;69.49;98970.72;5052589;28;20032;-49
2024/03/07 01:01:18;;;;;;;12.52;5.28;;;;;;;5.93;69.80;98958.66;5051146;28;20375;-49
2024/03/07 01:03:44;;;;;;;9.85;5.70;;;;;;;5.73;68.60;98965.97;5052501;28;20402;-49
2024/03/07 01:06:10;;;;;;;10.15;5.50;;;;;;;5.53;69.46;98967.25;5052782;28;20027;-49
2024/03/07 01:08:37;;;;;;;14.57;5.88;;;;;;;5.36;69.87;98963.81;5050667;28;20052;-49
2024/03/07 01:11:11;;;;;;;9.63;5.35;;;;;;;5.29;70.35;98960.22;5051076;28;20509;-49
2024/03/07 01:13:40;;;;;;;10.48;5.07;;;;;;;5.11;71.25;98963.78;5052256;28;20030;-49
2024/03/07 01:16:06;;;;;;;10.85;6.20;;;;;;;5.10;70.73;98961.31;5050905;28;20041;-49
2024/03/07 01:18:35;;;;;;;12.35;6.43;;;;;;;4.90;71.67;98961.56;5051003;28;20033;-49
2024/03/07 01:21:02;;;;;;;14.48;7.15;;;;;;;4.88;72.59;98960.13;5052107;28;20032;-48
2024/03/07 01:23:28;;;;;;;12.48;4.78;;;;;;;4.97;73.69;98960.00;5050839;28;20108;-49
2024/03/07 01:25:56;;;;;;;12.70;10.32;;;;;;;5.13;72.92;98963.59;5052108;28;20025;-49
2024/03/07 01:28:23;;;;;;;10.73;6.07;;;;;;;5.11;72.33;98955.97;5051963;28;20024;-49
2024/03/07 01:30:52;;;;;;;10.00;6.38;;;;;;;5.09;71.99;98952.72;5051990;28;20507;-49
2024/03/07 01:33:19;;;;;;;12.93;6.30;;;;;;;5.19;72.35;98958.59;5051991;28;20025;-49
2024/03/07 01:35:46;;;;;;;8.48;5.80;;;;;;;5.41;71.97;98956.34;5051943;28;20029;-49
2024/03/07 01:38:13;;;;;;;14.38;6.35;;;;;;;5.32;71.72;98950.31;5051941;28;20020;-48
2024/03/07 01:40:42;;;;;;;13.88;7.13;;;;;;;5.29;71.20;98945.44;5050447;28;20111;-49
2024/03/07 01:43:10;;;;;;;11.13;6.40;;;;;;;5.04;70.62;98941.16;5050566;28;20025;-49
2024/03/07 01:45:37;;;;;;;10.65;7.60;;;;;;;4.74;71.94;98941.53;5063775;28;20057;-49
2024/03/07 01:48:09;;;;;;;10.80;6.80;;;;;;;4.77;72.50;98936.03;5070579;28;20567;-49
2024/03/07 01:50:38;;;;;;;13.15;5.95;;;;;;;4.91;73.64;98933.78;5071795;28;20027;-49
2024/03/07 01:53:06;;;;;;;7.00;5.10;;;;;;;5.21;72.81;98924.59;5071744;28;20031;-48
2024/03/07 01:55:33;;;;;;;10.73;5.63;;;;;;;5.38;72.12;98915.84;5070398;28;20490;-49
2024/03/07 01:58:04;;;;;;;13.23;6.15;;;;;;;5.43;71.64;98909.34;5070478;28;20020;-49
2024/03/07 02:00:31;;;;;;;8.45;5.07;;;;;;;5.31;71.23;98903.63;5071601;28;20021;-49
2024/03/07 02:02:57;;;;;;;16.75;9.73;;;;;;;5.49;71.86;98899.09;5053699;28;20076;-49
2024/03/07 02:05:23;;;;;;;15.90;7.15;;;;;;;5.50;70.69;98902.53;5071557;28;20115;-48
2024/03/07 02:07:50;;;;;;;17.80;10.63;;;;;;;5.41;71.15;98904.28;5071886;28;20063;-48
2024/03/07 02:10:16;;;;;;;11.20;6.22;;;;;;;5.23;70.51;98898.41;5070448;28;20085;-49
2024/03/07 02:12:42;;;;;;;8.80;5.78;;;;;;;4.92;71.41;98901.63;5070239;28;20021;-49
2024/03/07 02:15:08;;;;;;;18.02;12.48;;;;;;;4.91;72.58;98894.78;5070230;28;20024;-49
2024/03/07 02:17:34;;;;;;;11.88;7.07;;;;;;;4.82;72.60;98896.53;5070142;28;20062;-49
2024/03/07 02:20:00;;;;;;;13.40;6.90;;;;;;;4.66;72.27;98893.91;5072391;28;20024;-49
2024/03/07 02:22:26;;;;;;;19.30;7.82;;;;;;;4.69;73.61;98894.41;5074224;28;20081;-48
2024/03/07 02:24:52;;;;;;;39.15;30.98;;;;;;;4.68;73.18;98886.75;5074214;28;20020;-49
2024/03/07 02:27:18;;;;;;;39.25;35.25;;;;;;;4.69;73.49;98883.16;5074164;28;20029;-49
2024/03/07 02:29:44;;;;;;;16.73;8.80;;;;;;;4.63;72.56;98889.00;5075392;28;20027;-49
2024/03/07 02:32:11;;;;;;;14.90;9.50;;;;;;;4.65;73.51;98881.84;5074063;28;20020;-49
2024/03/07 02:34:37;;;;;;;12.48;8.07;;;;;;;4.50;72.63;98885.06;5074028;28;20499;-48
2024/03/07 02:37:02;;;;;;;10.07;6.03;;;;;;;4.44;73.76;98880.47;5075252;28;20106;-49
2024/03/07 02:39:28;;;;;;;13.60;6.32;;;;;;;4.31;74.35;98878.31;5073831;28;20406;-48
2024/03/07 02:41:54;;;;;;;9.05;6.32;;;;;;;4.07;76.33;98873.81;5075131;28;20401;-49
2024/03/07 02:44:20;;;;;;;15.18;6.90;;;;;;;3.99;77.23;98874.56;5074933;28;20020;-48
2024/03/07 02:46:49;;;;;;;14.80;6.50;;;;;;;4.23;76.74;98872.28;5073637;28;20063;-48
2024/03/07 02:49:14;;;;;;;14.48;6.00;;;;;;;4.15;76.08;98873.06;5073786;28;20143;-49
2024/03/07 02:51:43;;;;;;;15.95;6.03;;;;;;;4.04;75.61;98871.50;5074948;28;20104;-48
2024/03/07 02:54:09;;;;;;;31.23;26.85;;;;;;;4.10;76.76;98864.91;5075217;28;20078;-49
2024/03/07 02:56:35;;;;;;;42.30;38.20;;;;;;;4.24;76.23;98863.50;5073563;28;20445;-49
2024/03/07 02:59:01;;;;;;;63.80;55.78;;;;;;;4.17;75.74;98858.94;5075105;28;20544;-49
2024/03/07 03:01:26;;;;;;;26.20;23.10;;;;;;;4.10;75.47;98855.31;5074921;28;20032;-49
2024/03/07 03:03:53;;;;;;;11.55;7.63;;;;;;;4.22;76.31;98849.84;5074799;28;20107;-48
2024/03/07 03:06:22;;;;;;;13.80;7.53;;;;;;;4.52;77.12;98851.13;5073406;28;20028;-48
2024/03/07 03:08:47;;;;;;;17.60;10.73;;;;;;;4.72;74.81;98844.69;5073393;28;20419;-49
2024/03/07 03:11:13;;;;;;;14.75;8.70;;;;;;;4.75;73.93;98852.16;5074586;28;20020;-49
2024/03/07 03:13:40;;;;;;;13.73;7.10;;;;;;;4.62;74.04;98849.19;5074523;28;20031;-49
2024/03/07 03:16:09;;;;;;;10.93;5.93;;;;;;;4.46;73.87;98859.53;5074489;28;20042;-48
2024/03/07 03:18:35;;;;;;;11.48;6.20;;;;;;;4.15;73.62;98860.06;5074446;28;20033;-49
2024/03/07 03:21:02;;;;;;;8.60;5.53;;;;;;;4.06;75.13;98846.19;5074342;28;20078;-49
2024/03/07 03:23:28;;;;;;;10.07;6.40;;;;;;;4.10;75.47;98852.72;5073094;28;20036;-49
2024/03/07 03:25:55;;;;;;;13.45;8.63;;;;;;;4.12;75.57;98842.97;5074389;28;20398;-49
2024/03/07 03:28:21;;;;;;;12.15;6.38;;;;;;;4.35;75.44;98848.47;5072986;28;20037;-49
2024/03/07 03:30:48;;;;;;;13.32;6.43;;;;;;;4.30;73.99;98849.91;5074008;28;20095;-49
2024/03/07 03:33:14;;;;;;;14.32;6.88;;;;;;;4.07;74.10;98845.25;5072974;28;20490;-49
2024/03/07 03:35:40;;;;;;;17.85;6.95;;;;;;;3.93;75.27;98845.81;5072886;28;20043;-48
2024/03/07 03:38:07;;;;;;;9.88;5.50;;;;;;;4.12;76.00;98834.38;5072877;28;20034;-48
2024/03/07 03:40:34;;;;;;;12.57;7.13;;;;;;;4.33;75.53;98842.59;5074627;28;20043;-49
2024/03/07 03:43:00;;;;;;;9.88;5.68;;;;;;;4.33;74.20;98842.59;5074371;28;20031;-49
2024/03/07 03:45:26;;;;;;;15.02;9.88;;;;;;;4.39;74.92;98841.97;5072695;28;20057;-49
2024/03/07 03:47:53;;;;;;;11.18;7.45;;;;;;;4.56;74.14;98837.63;5072659;28;20028;-49
2024/03/07 03:50:18;;;;;;;14.45;9.85;;;;;;;4.63;74.03;98843.03;5073935;28;20028;-49
2024/03/07 03:52:44;;;;;;;12.20;6.13;;;;;;;4.72;74.39;98836.06;5073842;28;20033;-49
2024/03/07 03:55:14;;;;;;;11.98;7.97;;;;;;;4.73;73.26;98833.31;5073867;28;20052;-49
2024/03/07 03:57:41;;;;;;;10.57;7.15;;;;;;;4.59;73.30;98841.72;5072429;28;20025;-49
2024/03/07 04:00:14;;;;;;;11.25;5.18;;;;;;;4.37;73.31;98841.31;5073897;28;20473;-49
2024/03/07 04:02:41;;;;;;;14.18;6.05;;;;;;;4.24;73.52;98840.13;5072620;28;20039;-48
2024/03/07 04:05:09;;;;;;;9.45;5.70;;;;;;;4.18;74.06;98842.38;5073659;28;20024;-48
2024/03/07 04:07:35;;;;;;;12.90;8.40;;;;;;;4.36;74.63;98841.47;5072299;28;20028;-49
2024/03/07 04:10:03;;;;;;;10.48;6.60;;;;;;;4.39;74.50;98833.38;5072265;28;20028;-49
2024/03/07 04:12:29;;;;;;;13.27;5.53;;;;;;;4.34;73.87;98838.22;5073447;28;20028;-48
2024/03/07 04:14:55;;;;;;;14.00;5.72;;;;;;;4.38;73.71;98840.34;5072144;28;20042;-49
2024/03/07 04:17:21;;;;;;;10.30;5.88;;;;;;;4.08;72.28;98839.06;5073402;28;20047;-49
2024/03/07 04:19:48;;;;;;;11.40;6.20;;;;;;;3.73;73.45;98840.81;5071936;28;20391;-48
2024/03/07 04:22:13;;;;;;;9.35;5.28;;;;;;;3.61;74.89;98844.66;5071957;28;20525;-49
2024/03/07 04:24:40;;;;;;;11.30;6.00;;;;;;;3.68;74.32;98848.28;5071976;28;20036;-49
2024/03/07 04:27:06;;;;;;;10.50;5.85;;;;;;;3.82;75.66;98844.28;5073126;28;20035;-49
2024/03/07 04:29:33;;;;;;;11.00;5.63;;;;;;;4.00;76.47;98836.44;5071819;28;20442;-49
2024/03/07 04:32:01;;;;;;;17.02;10.93;;;;;;;4.17;75.36;98840.75;5071773;28;20028;-49
2024/03/07 04:34:27;;;;;;;15.05;7.10;;;;;;;4.02;74.22;98837.09;5071801;28;20028;-48
2024/03/07 04:36:53;;;;;;;13.35;6.10;;;;;;;3.88;74.75;98835.88;5073284;28;20036;-49
2024/03/07 04:39:32;;;;;;;11.25;5.97;;;;;;;3.73;74.80;98840.03;5072984;28;20538;-48
2024/03/07 04:42:00;;;;;;;14.70;6.03;;;;;;;3.89;75.97;98837.53;5072940;28;20031;-49
2024/03/07 04:44:26;;;;;;;9.80;6.05;;;;;;;4.02;75.60;98837.09;5071954;28;20044;-49
2024/03/07 04:47:00;;;;;;;38.17;32.92;;;;;;;4.08;75.41;98831.28;5071516;28;20027;-49
2024/03/07 04:49:28;;;;;;;10.68;6.10;;;;;;;4.00;73.99;98836.44;5071509;28;20111;-49
2024/03/07 04:51:56;;;;;;;9.48;6.28;;;;;;;3.64;74.11;98831.34;5072735;28;20028;-49
2024/03/07 04:54:22;;;;;;;10.57;6.22;;;;;;;3.42;75.09;98837.03;5072756;28;20078;-48
2024/03/07 04:56:50;;;;;;;12.10;6.47;;;;;;;3.49;75.77;98831.09;5072774;28;20028;-49
2024/03/07 04:59:17;;;;;;;13.45;6.90;;;;;;;3.52;75.63;98835.16;5071314;28;20513;-49
2024/03/07 05:01:43;;;;;;;9.27;6.43;;;;;;;3.60;77.08;98833.47;5071141;28;20028;-48
2024/03/07 05:04:11;;;;;;;14.63;7.13;;;;;;;3.65;75.66;98829.59;5072529;28;20020;-49
2024/03/07 05:06:37;;;;;;;17.00;7.68;;;;;;;3.51;76.34;98825.75;5072367;28;20444;-49
2024/03/07 05:09:06;;;;;;;11.70;7.60;;;;;;;3.73;76.30;98820.06;5071060;28;20052;-49
2024/03/07 05:11:33;;;;;;;12.95;6.53;;;;;;;3.88;75.89;98812.50;5071025;28;20047;-49
2024/03/07 05:13:59;;;;;;;12.73;6.07;;;;;;;3.92;74.79;98813.03;5072525;28;20375;-49
2024/03/07 05:16:29;;;;;;;11.77;6.38;;;;;;;3.85;74.87;98806.84;5072461;28;20032;-49
2024/03/07 05:18:59;;;;;;;12.05;6.07;;;;;;;3.88;74.71;98803.91;5070954;28;20036;-49
2024/03/07 05:21:37;;;;;;;17.95;6.65;;;;;;;3.87;75.00;98805.72;5070780;28;20058;-49
2024/03/07 05:24:07;;;;;;;14.50;9.60;;;;;;;4.06;76.52;98811.63;5072269;28;20024;-48
2024/03/07 05:26:37;;;;;;;10.73;6.13;;;;;;;4.32;75.30;98796.81;5070816;28;20402;-49
2024/03/07 05:29:09;;;;;;;12.35;5.90;;;;;;;4.30;73.68;98803.94;5072134;28;20078;-49
2024/03/07 05:31:36;;;;;;;12.88;6.30;;;;;;;4.18;74.00;98803.41;5071977;28;20047;-49
2024/03/07 05:34:04;;;;;;;15.65;5.80;;;;;;;4.37;73.73;98798.94;5070754;28;20024;-49
2024/03/07 05:36:33;;;;;;;10.85;6.45;;;;;;;4.38;73.41;98801.38;5070690;28;20047;-49
2024/03/07 05:39:08;;;;;;;12.18;6.10;;;;;;;4.36;72.76;98792.91;5070796;28;20021;-49
2024/03/07 05:41:34;;;;;;;13.15;5.85;;;;;;;4.05;72.57;98800.44;5070573;28;20067;-49
2024/03/07 05:44:00;;;;;;;8.45;5.95;;;;;;;3.73;72.66;98798.50;5071968;28;20444;-48
2024/03/07 05:46:26;;;;;;;9.82;7.07;;;;;;;3.53;74.43;98803.06;5071727;28;20580;-49
2024/03/07 05:48:55;;;;;;;11.80;7.75;;;;;;;3.56;75.43;98798.41;5071849;28;20036;-48
2024/03/07 05:51:23;;;;;;;7.82;6.40;;;;;;;3.47;74.77;98803.69;5072033;28;20082;-49
2024/03/07 05:53:49;;;;;;;11.15;6.32;;;;;;;3.52;75.66;98804.03;5053811;28;20024;-49
2024/03/07 05:56:14;;;;;;;15.68;7.03;;;;;;;3.51;75.30;98802.41;5070626;28;20054;-49
2024/03/07 05:58:40;;;;;;;8.82;6.20;;;;;;;3.31;75.42;98802.59;5071766;28;20544;-49
2024/03/07 06:01:08;;;;;;;12.25;6.88;;;;;;;3.04;76.06;98802.69;5071649;28;20028;-48
2024/03/07 06:03:37;;;;;;;10.48;6.50;;;;;;;2.90;76.71;98801.47;5071694;28;20572;-48
2024/03/07 06:06:04;;;;;;;13.88;7.60;;;;;;;2.83;77.35;98801.22;5070398;28;20055;-49
2024/03/07 06:08:31;;;;;;;12.73;7.18;;;;;;;2.87;77.43;98801.72;5071882;28;20031;-48
2024/03/07 06:10:57;;;;;;;10.18;6.65;;;;;;;2.94;77.61;98798.41;5071603;28;20020;-48
2024/03/07 06:13:23;;;;;;;14.18;7.38;;;;;;;2.87;77.41;98799.16;5070302;28;20025;-48
2024/03/07 06:15:49;;;;;;;12.52;7.60;;;;;;;2.86;77.89;98805.28;5070226;28;20035;-48
2024/03/07 06:18:14;;;;;;;11.82;6.93;;;;;;;2.93;78.32;98801.94;5071570;28;20021;-48
2024/03/07 06:20:41;;;;;;;14.70;7.32;;;;;;;3.17;77.95;98803.94;5070133;28;20025;-48
2024/03/07 06:23:07;;;;;;;11.98;7.72;;;;;;;3.49;76.92;98797.38;5070489;28;20462;-48
2024/03/07 06:25:36;;;;;;;15.13;7.03;;;;;;;3.83;75.94;98790.59;5071677;28;20048;-49
2024/03/07 06:28:11;;;;;;;15.82;6.28;;;;;;;4.27;74.84;98790.47;5071476;28;20024;-48
2024/03/07 06:30:43;;;;;;;12.25;6.85;;;;;;;4.92;73.61;98798.41;5071496;28;20505;-48
2024/03/07 06:33:10;;;;;;;11.35;6.03;;;;;;;5.26;70.90;98801.84;5054232;28;20152;-49
2024/03/07 06:35:36;;;;;;;9.52;6.13;;;;;;;5.66;70.11;98806.19;5070085;28;20410;-49
2024/03/07 06:38:03;;;;;;;13.40;6.22;;;;;;;6.01;67.59;98798.94;5071425;28;20402;-48
2024/03/07 06:40:29;;;;;;;9.70;6.38;;;;;;;6.28;66.96;98807.31;5069915;28;20025;-49
2024/03/07 06:42:56;;;;;;;19.90;6.78;;;;;;;6.75;66.26;98806.44;5071348;28;20036;-49
2024/03/07 06:45:24;;;;;;;12.30;6.50;;;;;;;6.98;63.43;98807.25;5071292;28;20430;-49
2024/03/07 06:47:50;;;;;;;10.98;6.53;;;;;;;6.63;61.80;98805.22;5071293;28;20035;-49
2024/03/07 06:50:19;;;;;;;11.35;6.75;;;;;;;6.00;63.61;98803.34;5069867;28;20078;-49
2024/03/07 06:52:48;;;;;;;12.60;9.57;;;;;;;5.60;65.22;98812.06;5069900;28;20486;-49
2024/03/07 06:55:18;;;;;;;16.17;9.15;;;;;;;5.41;66.14;98815.78;5069851;28;20032;-49
2024/03/07 06:57:44;;;;;;;20.00;11.10;;;;;;;5.45;67.98;98808.47;5071194;28;20052;-49
2024/03/07 07:00:11;;;;;;;13.77;7.38;;;;;;;5.70;67.57;98809.28;5071069;28;20074;-49
2024/03/07 07:02:39;;;;;;;11.63;6.60;;;;;;;5.62;66.94;98807.50;5069817;28;20464;-47
2024/03/07 07:05:10;;;;;;;10.40;6.85;;;;;;;5.56;67.44;98806.34;5071427;28;20024;-47
2024/03/07 07:07:41;;;;;;;15.73;7.70;;;;;;;5.59;67.49;98800.84;5074046;28;20073;-47
2024/03/07 07:10:10;;;;;;;20.15;7.55;;;;;;;5.78;67.42;98804.84;5074617;28;20078;-47
2024/03/07 07:12:37;;;;;;;17.63;7.03;;;;;;;6.09;66.43;98804.13;5074610;28;20052;-47
2024/03/07 07:15:04;;;;;;;11.95;7.07;;;;;;;7.11;65.63;98805.88;5073323;28;20029;-47
2024/03/07 07:17:30;;;;;;;16.45;6.95;;;;;;;8.04;61.24;98806.47;5074470;28;20020;-47
2024/03/07 07:19:57;;;;;;;13.65;6.82;;;;;;;8.60;59.44;98804.97;5074516;28;20024;-46
2024/03/07 07:22:26;;;;;;;14.85;7.30;;;;;;;9.43;57.26;98794.03;5074500;28;20028;-47
2024/03/07 07:24:54;;;;;;;25.63;12.80;;;;;;;10.08;54.93;98801.72;5073152;28;20032;-47
2024/03/07 07:27:21;;;;;;;485.00;433.00;;;;;;;10.43;53.80;98796.47;5074324;28;20028;-47
2024/03/07 07:29:47;;;;;;;87.03;75.20;;;;;;;11.24;53.09;98799.03;5074336;28;20032;-47
2024/03/07 07:32:13;;;;;;;649.67;592.47;;;;;;;12.37;51.45;98784.88;5074202;28;20024;-47
2024/03/07 07:34:42;;;;;;;63.28;57.05;;;;;;;13.28;49.60;98796.06;5074198;28;20085;-47
2024/03/07 07:37:11;;;;;;;52.92;32.20;;;;;;;14.22;48.36;98790.75;5074375;28;20029;-48
2024/03/07 07:39:37;;;;;;;43.83;12.52;;;;;;;15.14;45.74;98788.69;5074074;28;20498;-48
2024/03/07 07:42:03;;;;;;;21.17;10.15;;;;;;;15.79;44.15;98773.78;5074143;28;20035;-47
2024/03/07 07:44:29;;;;;;;17.40;7.60;;;;;;;16.49;42.58;98783.41;5073926;28;20401;-48
2024/03/07 07:46:55;;;;;;;25.77;8.98;;;;;;;17.08;40.58;98769.09;5072762;28;20636;-47
2024/03/07 07:49:21;;;;;;;23.38;9.52;;;;;;;16.51;38.09;98769.94;5073975;28;20044;-48
2024/03/07 07:51:48;;;;;;;20.38;8.02;;;;;;;15.60;38.80;98770.44;5073946;28;20055;-48
2024/03/07 07:54:14;;;;;;;18.20;7.43;;;;;;;14.82;39.99;98776.78;5073954;28;20115;-48
2024/03/07 07:56:40;;;;;;;17.00;7.32;;;;;;;14.19;40.75;98769.03;5072570;28;20103;-48
2024/03/07 07:59:09;;;;;;;14.13;8.52;;;;;;;13.60;41.43;98770.47;5073804;28;20162;-48
2024/03/07 08:01:35;;;;;;;13.98;10.38;;;;;;;12.94;41.84;98777.91;5073913;28;20570;-48
2024/03/07 08:04:00;;;;;;;14.13;8.10;;;;;;;12.50;43.60;98784.03;5072418;28;20143;-48
2024/03/07 08:06:27;;;;;;;15.52;8.15;;;;;;;12.56;44.06;98777.94;5073617;28;20028;-47
2024/03/07 08:08:53;;;;;;;21.20;12.32;;;;;;;12.30;44.54;98784.13;5072303;28;20079;-47
2024/03/07 08:11:19;;;;;;;20.83;9.05;;;;;;;12.05;44.81;98771.63;5073830;28;20493;-47
2024/03/07 08:13:49;;;;;;;20.77;7.75;;;;;;;12.22;45.45;98773.84;5073528;28;20402;-47
2024/03/07 08:16:16;;;;;;;14.25;7.97;;;;;;;12.45;45.31;98768.06;5073357;28;20077;-48
2024/03/07 08:18:42;;;;;;;10.63;7.47;;;;;;;12.40;44.99;98771.31;5072378;28;20074;-48
2024/03/07 08:21:10;;;;;;;19.95;7.85;;;;;;;12.03;45.60;98764.97;5071995;28;20024;-48
2024/03/07 08:23:37;;;;;;;17.35;7.93;;;;;;;11.69;47.44;98759.78;5073596;28;20554;-48
2024/03/07 08:26:05;;;;;;;16.58;7.28;;;;;;;11.97;48.04;98758.72;5071976;28;20033;-48
2024/03/07 08:28:31;;;;;;;13.85;6.50;;;;;;;12.84;46.88;98759.13;5073195;28;20025;-48
2024/03/07 08:30:59;;;;;;;17.40;6.43;;;;;;;14.23;45.56;98752.78;5071819;28;20029;-47
2024/03/07 08:33:25;;;;;;;12.60;6.85;;;;;;;15.59;42.29;98745.03;5073133;28;20025;-48
2024/03/07 08:35:53;;;;;;;13.32;6.30;;;;;;;16.20;40.92;98742.06;5055332;28;20031;-46
2024/03/07 08:38:20;;;;;;;21.35;6.60;;;;;;;16.88;39.57;98733.25;5073257;28;20032;-45
2024/03/07 08:40:46;;;;;;;13.55;5.85;;;;;;;17.98;37.74;98732.72;5073135;28;20112;-45
2024/03/07 08:43:12;;;;;;;16.85;6.97;;;;;;;19.21;36.08;98722.47;5072948;28;20107;-45
2024/03/07 08:45:38;;;;;;;11.82;6.72;;;;;;;19.65;34.28;98724.84;5072561;28;20059;-45
2024/03/07 08:48:05;;;;;;;13.20;7.30;;;;;;;18.93;34.26;98724.38;5072804;28;20502;-46
2024/03/07 08:50:32;;;;;;;12.88;7.30;;;;;;;18.58;35.13;98724.84;5072720;28;20046;-46
2024/03/07 08:53:00;;;;;;;26.08;8.05;;;;;;;19.21;35.66;98728.59;5072934;28;20029;-46
2024/03/07 08:55:26;;;;;;;18.70;7.20;;;;;;;20.34;33.91;98716.63;5072607;28;20036;-46
2024/03/07 08:57:52;;;;;;;17.77;6.70;;;;;;;21.58;32.60;98714.75;5072559;28;20450;-46
2024/03/07 09:00:22;;;;;;;12.50;6.30;;;;;;;22.52;30.70;98712.19;5071174;28;20061;-46
2024/03/07 09:02:58;;;;;;;14.48;6.05;;;;;;;23.66;30.26;98703.94;5072562;28;20070;-47
2024/03/07 09:05:25;;;;;;;17.45;5.90;;;;;;;24.22;28.26;98710.53;5071195;28;20021;-47
2024/03/07 09:07:52;;;;;;;30.85;6.95;;;;;;;25.19;27.09;98709.00;5071128;28;20030;-47
2024/03/07 09:10:19;;;;;;;17.17;5.97;;;;;;;25.89;26.02;98699.88;5072323;28;20024;-48
2024/03/07 09:12:45;;;;;;;21.33;5.78;;;;;;;26.21;25.50;98698.16;5072353;28;20017;-47
2024/03/07 09:15:11;;;;;;;13.48;5.60;;;;;;;26.55;24.70;98693.38;5054809;28;20023;-47
2024/03/07 09:17:38;;;;;;;20.25;6.63;;;;;;;26.16;25.20;98694.78;5072545;28;20025;-47
2024/03/07 09:20:09;;;;;;;10.85;5.43;;;;;;;25.90;25.07;98701.53;5072155;28;20017;-47
2024/03/07 09:22:34;;;;;;;17.45;5.38;;;;;;;26.34;25.02;98690.34;5072215;28;20498;-48
2024/03/07 09:25:01;;;;;;;16.40;6.25;;;;;;;26.96;24.28;98676.25;5072182;28;20048;-47
2024/03/07 09:27:27;;;;;;;8.43;5.70;;;;;;;27.01;23.55;98681.50;5072115;28;20035;-47
2024/03/07 09:29:52;;;;;;;11.63;5.38;;;;;;;26.42;23.70;98684.25;5070534;28;20021;-47
2024/03/07 09:32:21;;;;;;;16.52;6.45;;;;;;;26.32;23.99;98688.00;5072004;28;20458;-47
2024/03/07 09:34:47;;;;;;;11.15;5.50;;;;;;;26.30;23.73;98690.97;5071928;28;20036;-47
2024/03/07 09:37:13;;;;;;;10.15;5.22;;;;;;;26.16;23.92;98684.84;5072025;28;20398;-47
2024/03/07 09:39:39;;;;;;;9.68;5.53;;;;;;;25.81;23.25;98675.63;5071952;28;20024;-48
2024/03/07 09:42:11;;;;;;;16.40;6.47;;;;;;;25.57;24.38;98681.22;5070956;28;20052;-48
2024/03/07 09:44:40;;;;;;;13.07;5.50;;;;;;;25.23;24.18;98683.22;5071882;28;20071;-47
2024/03/07 09:47:07;;;;;;;11.63;5.30;;;;;;;24.39;25.06;98685.84;5066332;28;20051;-47
2024/03/07 09:49:37;;;;;;;14.27;5.93;;;;;;;24.58;25.82;98683.19;5073797;28;20056;-47
2024/03/07 09:52:14;;;;;;;10.43;6.05;;;;;;;24.91;25.57;98676.75;5070524;28;20465;-47
2024/03/07 09:54:43;;;;;;;12.25;5.60;;;;;;;25.45;25.02;98666.38;5072145;28;20055;-47
2024/03/07 09:57:11;;;;;;;10.82;5.47;;;;;;;25.86;24.56;98672.84;5070601;28;20052;-47
2024/03/07 09:59:39;;;;;;;11.38;5.03;;;;;;;26.17;24.16;98667.59;5071657;28;20033;-47
2024/03/07 10:02:07;;;;;;;11.32;5.65;;;;;;;26.14;23.79;98664.72;5071775;28;20032;-48
2024/03/07 10:04:52;;;;;;;13.60;5.22;;;;;;;26.16;24.39;98657.94;5070684;28;20032;-47
2024/03/07 10:07:18;;;;;;;;;;;;;;;26.32;24.55;98658.38;5070790;28;20391;-47
2024/03/07 10:09:44;;;;;;;7.40;3.88;;;;;;;25.98;23.61;98659.69;5070358;28;20007;-47
2024/03/07 10:12:12;;;;;;;4.80;3.60;;;;;;;25.21;23.60;98660.38;5071617;28;20066;-47
2024/03/07 10:14:38;;;;;;;6.35;3.00;;;;;;;24.35;24.07;98656.16;5071483;28;20041;-47
2024/03/07 10:17:05;;;;;;;5.85;3.58;;;;;;;23.94;25.03;98654.06;5070271;28;20035;-47
2024/03/07 10:19:31;;;;;;;5.25;3.90;;;;;;;24.13;24.57;98652.19;5070667;28;20446;-47
2024/03/07 10:22:01;;;;;;;6.10;3.50;;;;;;;23.93;24.65;98647.91;5071436;28;20060;-47
2024/03/07 10:24:27;;;;;;;3.72;3.03;;;;;;;24.01;24.53;98651.81;5070188;28;20116;-47
2024/03/07 10:26:58;;;;;;;7.13;3.03;;;;;;;24.43;24.29;98639.41;5053532;28;20491;-47
2024/03/07 10:29:24;;;;;;;8.48;3.13;;;;;;;24.35;23.34;98633.88;5071498;28;20021;-47
2024/03/07 10:31:50;;;;;;;4.25;2.47;;;;;;;24.18;23.99;98639.78;5071454;28;20099;-47
2024/03/07 10:34:16;;;;;;;4.93;2.33;;;;;;;24.24;23.69;98633.25;5071397;28;20112;-47
2024/03/07 10:36:43;;;;;;;3.92;2.28;;;;;;;24.26;23.08;98629.19;5070064;28;20052;-47
2024/03/07 10:39:14;;;;;;;3.00;2.35;;;;;;;24.26;23.52;98628.41;5071372;28;20024;-47
2024/03/07 10:41:47;;;;;;;6.97;2.30;;;;;;;25.14;22.61;98622.38;5072952;28;20029;-47
2024/03/07 10:44:23;;;;;;;3.78;2.25;;;;;;;24.73;22.74;98618.56;5073883;28;20070;-48
2024/03/07 10:46:54;;;;;;;4.25;2.15;;;;;;;24.05;23.89;98615.28;5075091;28;20024;-47
2024/03/07 10:49:24;;;;;;;3.10;2.20;;;;;;;23.98;23.33;98611.38;5074860;28;20064;-47
2024/03/07 10:52:19;;;;;;;4.85;2.08;;;;;;;23.03;23.90;98605.84;5075059;28;20086;-47
2024/03/07 10:55:03;;;;;;;3.60;2.10;;;;;;;22.18;25.33;98609.75;5074928;28;20036;-47
2024/03/07 10:57:56;;;;;;;3.97;2.00;;;;;;;22.08;25.45;98603.38;5074952;28;20052;-47
2024/03/07 11:00:29;;;;;;;4.43;2.67;;;;;;;23.28;25.05;98607.41;5068332;28;20075;-47
2024/03/07 11:02:56;;;;;;;8.30;2.85;;;;;;;24.45;24.89;98596.97;5074877;28;20024;-48
2024/03/07 11:05:29;;;;;;;3.58;2.17;;;;;;;24.33;23.16;98600.13;5074766;28;20031;-47
2024/03/07 11:07:58;;;;;;;4.30;2.72;;;;;;;23.22;24.12;98603.22;5073507;28;20433;-47
2024/03/07 11:10:25;;;;;;;6.22;2.60;;;;;;;23.09;24.16;98597.47;5074728;28;20052;-47
2024/03/07 11:12:51;;;;;;;4.22;2.60;;;;;;;23.01;24.60;98584.66;5073515;28;20072;-47
2024/03/07 11:15:22;;;;;;;3.42;2.03;;;;;;;23.55;23.63;98590.75;5074532;28;20021;-47
2024/03/07 11:17:49;;;;;;;6.30;2.33;;;;;;;23.79;23.53;98571.19;5074537;28;20027;-48
2024/03/07 11:20:24;;;;;;;4.75;1.95;;;;;;;23.76;23.33;98577.09;5056615;28;20557;-47
2024/03/07 11:22:51;;;;;;;2.58;1.75;;;;;;;23.77;22.44;98578.69;5073183;28;20024;-47
2024/03/07 11:25:21;;;;;;;2.83;1.88;;;;;;;23.91;22.59;98568.88;5074420;28;20485;-47
2024/03/07 11:27:57;;;;;;;6.40;2.00;;;;;;;24.21;22.60;98564.13;5074667;28;20024;-47
2024/03/07 11:30:25;;;;;;;4.57;2.30;;;;;;;24.76;22.45;98558.91;5074343;28;20020;-47
2024/03/07 11:32:57;;;;;;;3.42;1.88;;;;;;;24.70;21.44;98554.72;5073017;28;20024;-48
2024/03/07 11:35:36;;;;;;;2.75;2.05;;;;;;;23.54;22.52;98551.66;5074316;28;20398;-47